createdAt,value
2023-04-30T00:01:30.323Z,87.52
2023-04-30T00:04:00.283Z,87.52
2023-04-30T00:06:31.770Z,87.44
2023-04-30T00:09:01.592Z,87.50
2023-04-30T00:11:34.031Z,87.47
2023-04-30T00:14:09.499Z,87.52
2023-04-30T00:16:42.129Z,87.60
2023-04-30T00:19:13.812Z,87.61
2023-04-30T00:21:54.266Z,87.59
2023-04-30T00:24:24.098Z,87.45
2023-04-30T00:26:59.949Z,87.38
2023-04-30T00:29:35.786Z,87.46
2023-04-30T00:32:08.655Z,87.50
2023-04-30T01:06:17.710Z,87.97
2023-04-30T01:08:48.638Z,88.07
2023-04-30T01:11:27.948Z,88.08
2023-04-30T01:14:08.442Z,88.23
2023-04-30T01:16:43.371Z,88.33
2023-04-30T01:19:28.656Z,88.56
2023-04-30T01:22:05.423Z,88.71
2023-04-30T01:24:57.325Z,88.97
2023-04-30T01:27:40.852Z,89.24
2023-04-30T01:30:14.944Z,89.56
2023-04-30T01:32:44.833Z,89.73
2023-04-30T01:35:14.671Z,89.96
2023-04-30T01:37:55.733Z,90.28
2023-04-30T01:40:31.343Z,90.43
2023-04-30T01:43:08.597Z,90.59
2023-04-30T01:45:58.004Z,90.84
2023-04-30T01:48:43.307Z,90.88
2023-04-30T01:51:22.620Z,90.87
2023-04-30T01:53:52.712Z,91.04
2023-04-30T01:56:30.251Z,91.14
2023-04-30T01:59:00.644Z,91.25
2023-04-30T02:01:35.580Z,91.22
2023-04-30T02:04:05.593Z,91.05
2023-04-30T02:06:35.960Z,91.18
2023-04-30T02:09:07.259Z,91.18
2023-04-30T02:11:37.092Z,91.15
2023-04-30T02:14:07.040Z,91.24
2023-04-30T02:16:39.881Z,91.23
2023-04-30T02:19:09.883Z,91.11
2023-04-30T02:21:39.756Z,91.17
2023-04-30T02:24:10.220Z,91.24
2023-04-30T02:26:40.020Z,91.23
2023-04-30T02:29:09.856Z,91.42
2023-04-30T02:31:42.420Z,91.47
2023-04-30T02:34:12.294Z,91.52
2023-04-30T02:36:42.156Z,91.59
2023-04-30T02:39:12.011Z,91.73
2023-04-30T02:41:41.859Z,91.95
2023-04-30T02:44:11.785Z,92.02
2023-04-30T02:46:47.722Z,92.14
2023-04-30T02:49:20.808Z,92.28
2023-04-30T02:51:50.890Z,92.34
2023-04-30T02:54:23.979Z,92.38
2023-04-30T02:57:00.020Z,92.42
2023-04-30T02:59:33.577Z,92.58
2023-04-30T03:45:19.429Z,92.63
2023-04-30T03:47:49.319Z,92.41
2023-04-30T03:50:20.764Z,92.35
2023-04-30T03:52:50.770Z,92.31
2023-04-30T03:55:20.772Z,92.20
2023-04-30T03:57:50.723Z,92.22
2023-04-30T04:00:23.454Z,92.06
2023-04-30T04:02:53.568Z,92.02
2023-04-30T04:05:23.491Z,92.04
2023-04-30T04:07:53.846Z,92.00
2023-04-30T04:10:23.642Z,91.99
2023-04-30T04:12:53.936Z,91.98
2023-04-30T04:15:26.446Z,92.15
2023-04-30T04:17:56.371Z,92.25
2023-04-30T04:20:26.291Z,92.39
2023-04-30T04:22:56.374Z,92.52
2023-04-30T04:25:27.675Z,92.66
2023-04-30T04:27:57.540Z,93.08
2023-04-30T04:30:30.069Z,93.34
2023-04-30T04:33:00.759Z,93.56
2023-04-30T04:35:31.345Z,93.83
2023-04-30T04:38:01.661Z,93.96
2023-04-30T04:40:31.874Z,94.16
2023-04-30T04:43:01.763Z,94.32
2023-04-30T04:45:34.476Z,94.34
2023-04-30T04:48:04.340Z,94.48
2023-04-30T04:50:37.436Z,94.55
2023-04-30T04:53:07.456Z,94.44
2023-04-30T04:55:37.414Z,94.27
2023-04-30T04:58:07.369Z,94.07
2023-04-30T05:00:39.893Z,93.77
2023-04-30T05:03:10.637Z,93.68
2023-04-30T05:05:40.616Z,93.63
2023-04-30T05:08:10.476Z,93.77
2023-04-30T05:10:43.470Z,93.89
2023-04-30T05:13:13.564Z,93.98
2023-04-30T05:15:46.239Z,93.92
2023-04-30T05:18:16.533Z,94.11
2023-04-30T05:20:46.468Z,94.29
2023-04-30T05:23:16.385Z,94.40
2023-04-30T05:25:46.948Z,94.41
2023-04-30T05:28:16.835Z,94.35
2023-04-30T05:30:49.550Z,94.36
2023-04-30T05:33:19.417Z,94.31
2023-04-30T05:35:49.287Z,94.31
2023-04-30T05:38:19.133Z,94.55
2023-04-30T05:40:49.463Z,94.73
2023-04-30T05:43:19.286Z,94.85
2023-04-30T05:45:54.903Z,95.08
2023-04-30T05:48:27.095Z,95.31
2023-04-30T05:50:56.875Z,95.44
2023-04-30T05:53:26.699Z,95.60
2023-04-30T05:55:56.570Z,95.62
2023-04-30T05:58:26.443Z,95.52
2023-04-30T06:00:59.469Z,95.31
2023-04-30T06:03:29.312Z,95.22
2023-04-30T06:05:59.180Z,95.13
2023-04-30T06:08:30.018Z,94.96
2023-04-30T06:24:59.676Z,93.78
2023-04-30T06:27:37.830Z,93.66
2023-04-30T06:30:13.703Z,93.36
2023-04-30T06:32:46.504Z,93.33
2023-04-30T06:35:21.303Z,93.25
2023-04-30T06:37:51.517Z,93.17
2023-04-30T06:40:41.044Z,93.09
2023-04-30T06:43:14.998Z,92.96
2023-04-30T06:45:51.084Z,92.69
2023-04-30T06:48:22.617Z,92.66
2023-04-30T06:50:58.277Z,92.50
2023-04-30T06:53:28.246Z,91.98
2023-04-30T06:56:01.240Z,91.70
2023-04-30T06:58:33.273Z,91.69
2023-04-30T07:01:03.676Z,91.66
2023-04-30T07:03:34.028Z,91.71
2023-04-30T07:06:12.238Z,91.53
2023-04-30T07:08:46.872Z,91.18
2023-04-30T07:11:19.276Z,90.67
2023-04-30T07:13:49.087Z,90.30
2023-04-30T07:16:21.693Z,90.28
2023-04-30T07:18:54.440Z,90.26
2023-04-30T07:21:28.050Z,90.21
2023-04-30T07:24:02.563Z,90.43
2023-04-30T07:26:40.681Z,90.38
2023-04-30T07:29:16.520Z,90.34
2023-04-30T07:31:46.381Z,89.99
2023-04-30T07:34:22.412Z,89.51
2023-04-30T07:36:57.551Z,89.20
2023-04-30T07:39:27.332Z,88.95
2023-04-30T07:41:57.439Z,88.83
2023-04-30T07:44:27.364Z,88.66
2023-04-30T07:46:58.806Z,88.46
2023-04-30T07:49:35.715Z,88.17
2023-04-30T07:52:11.394Z,87.97
2023-04-30T07:54:42.904Z,87.68
2023-04-30T07:57:18.581Z,87.18
2023-04-30T07:59:51.421Z,87.05
2023-04-30T08:02:23.050Z,86.60
2023-04-30T08:05:01.496Z,86.19
2023-04-30T08:07:33.948Z,85.75
2023-04-30T08:10:05.121Z,85.27
2023-04-30T08:12:37.212Z,85.14
2023-04-30T08:15:08.650Z,85.37
2023-04-30T08:17:40.294Z,85.22
2023-04-30T08:20:14.068Z,84.83
2023-04-30T08:22:46.734Z,84.66
2023-04-30T08:25:19.490Z,84.67
2023-04-30T08:27:49.445Z,84.53
2023-04-30T08:30:20.573Z,84.25
2023-04-30T08:32:56.051Z,84.41
2023-04-30T08:35:32.794Z,84.45
2023-04-30T08:38:20.533Z,83.99
2023-04-30T08:41:09.918Z,83.85
2023-04-30T08:43:46.035Z,83.41
2023-04-30T08:46:27.188Z,83.30
2023-04-30T08:49:11.177Z,82.64
2023-04-30T08:51:51.720Z,82.39
2023-04-30T08:54:29.499Z,82.02
2023-04-30T08:57:06.002Z,81.82
2023-04-30T08:59:36.011Z,81.31
2023-04-30T09:02:10.875Z,80.75
2023-04-30T09:04:49.891Z,79.81
2023-04-30T09:07:27.228Z,79.70
2023-04-30T09:10:03.401Z,79.85
2023-04-30T09:12:43.355Z,79.57
2023-04-30T09:15:14.589Z,79.26
2023-04-30T09:17:52.180Z,78.60
2023-04-30T09:20:36.400Z,78.34
2023-04-30T09:23:13.431Z,78.54
2023-04-30T09:25:46.660Z,78.88
2023-04-30T09:28:25.689Z,79.28
2023-04-30T09:30:56.158Z,78.72
2023-04-30T09:33:26.229Z,78.24
2023-04-30T09:36:01.594Z,78.22
2023-04-30T09:38:35.110Z,78.45
2023-04-30T09:41:10.391Z,78.35
2023-04-30T09:43:48.960Z,77.74
2023-04-30T09:46:25.716Z,77.95
2023-04-30T09:49:02.524Z,77.64
2023-04-30T09:51:33.026Z,77.05
2023-04-30T09:54:05.898Z,76.94
2023-04-30T09:56:42.697Z,76.56
2023-04-30T09:59:15.593Z,76.47
2023-04-30T10:01:49.422Z,76.68
2023-04-30T10:04:22.547Z,76.12
2023-04-30T10:07:04.161Z,75.20
2023-04-30T10:09:42.754Z,75.04
2023-04-30T10:12:21.397Z,74.81
2023-04-30T10:15:01.114Z,74.38
2023-04-30T10:17:37.456Z,74.51
2023-04-30T10:20:11.816Z,75.11
2023-04-30T10:22:48.466Z,74.86
2023-04-30T10:25:22.078Z,74.33
2023-04-30T10:28:02.588Z,73.57
2023-04-30T10:53:30.134Z,71.32
2023-04-30T10:56:07.025Z,71.29
2023-04-30T10:58:38.772Z,71.43
2023-04-30T11:01:11.639Z,72.08
2023-04-30T11:03:45.074Z,72.29
2023-04-30T11:06:16.218Z,72.35
2023-04-30T11:08:50.589Z,72.03
2023-04-30T11:11:23.073Z,72.06
2023-04-30T11:14:04.383Z,72.49
2023-04-30T11:16:34.696Z,72.95
2023-04-30T11:19:11.531Z,72.16
2023-04-30T11:21:44.036Z,71.20
2023-04-30T11:24:16.471Z,71.08
2023-04-30T11:27:07.591Z,70.40
2023-04-30T11:29:38.020Z,70.78
2023-04-30T11:32:08.727Z,70.85
2023-04-30T11:53:34.788Z,71.75
2023-04-30T11:56:07.869Z,72.22
2023-04-30T11:58:39.380Z,72.29
2023-04-30T12:01:11.102Z,71.98
2023-04-30T12:03:45.832Z,72.17
2023-04-30T12:06:16.137Z,72.49
2023-04-30T12:08:50.230Z,72.82
2023-04-30T12:11:33.802Z,72.53
2023-04-30T12:45:04.279Z,70.97
2023-04-30T12:47:38.263Z,70.97
2023-04-30T12:50:16.937Z,71.48
2023-04-30T12:52:49.472Z,71.48
2023-04-30T12:55:29.673Z,71.27
2023-04-30T12:58:13.160Z,71.30
2023-04-30T13:00:52.717Z,71.48
2023-04-30T13:03:42.929Z,71.17
2023-04-30T13:06:13.309Z,70.87
2023-04-30T13:08:56.881Z,71.60
2023-04-30T13:11:28.984Z,72.01
2023-04-30T13:13:58.856Z,71.61
2023-04-30T13:16:32.574Z,71.06
2023-04-30T13:19:02.680Z,71.20
2023-04-30T13:21:33.054Z,71.16
2023-04-30T13:24:02.989Z,71.40
2023-04-30T13:26:33.045Z,71.82
2023-04-30T13:29:02.846Z,71.94
2023-04-30T13:31:35.505Z,71.79
2023-04-30T13:34:05.358Z,72.18
2023-04-30T13:36:36.284Z,72.61
2023-04-30T13:39:07.135Z,72.59
2023-04-30T13:41:36.987Z,72.87
2023-04-30T13:44:06.869Z,72.32
2023-04-30T13:46:39.445Z,71.88
2023-04-30T13:49:09.345Z,72.19
2023-04-30T13:51:39.153Z,72.55
2023-04-30T13:54:09.028Z,73.05
2023-04-30T13:56:38.973Z,72.79
2023-04-30T13:59:08.774Z,73.08
2023-04-30T14:01:41.679Z,72.51
2023-04-30T14:04:11.512Z,72.87
2023-04-30T14:06:42.180Z,72.63
2023-04-30T14:09:12.113Z,72.58
2023-04-30T14:11:42.255Z,72.09
2023-04-30T14:14:12.432Z,71.93
2023-04-30T14:16:46.317Z,71.90
2023-04-30T14:19:19.210Z,72.08
2023-04-30T14:21:49.629Z,71.94
2023-04-30T14:24:20.293Z,71.88
2023-04-30T14:26:50.120Z,72.03
2023-04-30T14:29:21.615Z,72.54
2023-04-30T14:31:54.375Z,72.39
2023-04-30T14:34:24.761Z,72.55
2023-04-30T14:36:57.024Z,72.37
2023-04-30T14:39:41.590Z,72.13
2023-04-30T14:42:13.645Z,72.68
2023-04-30T14:44:46.418Z,72.77
2023-04-30T14:47:37.538Z,72.31
2023-04-30T14:50:08.269Z,72.41
2023-04-30T15:15:54.360Z,71.80
2023-04-30T15:21:52.971Z,72.06
2023-04-30T15:24:22.881Z,72.18
2023-04-30T15:26:54.606Z,72.15
2023-04-30T15:29:24.432Z,71.86
2023-04-30T15:31:54.622Z,71.69
2023-04-30T15:34:25.432Z,71.38
2023-04-30T15:36:59.250Z,71.53
2023-04-30T15:39:32.034Z,71.17
2023-04-30T15:42:06.196Z,71.27
2023-04-30T16:53:52.690Z,78.55
2023-04-30T16:56:25.006Z,78.14
2023-04-30T16:58:54.906Z,77.91
2023-04-30T17:01:24.796Z,77.83
2023-04-30T17:03:55.901Z,77.64
2023-04-30T17:06:28.123Z,77.91
2023-04-30T17:09:00.671Z,78.50
2023-04-30T17:11:31.262Z,78.59
2023-04-30T17:14:01.352Z,79.10
2023-04-30T17:16:31.298Z,79.30
2023-04-30T17:19:01.459Z,79.36
2023-04-30T17:21:31.597Z,79.52
2023-04-30T17:24:04.060Z,79.97
2023-04-30T17:26:34.433Z,80.86
2023-04-30T17:29:04.645Z,81.60
2023-04-30T17:31:37.742Z,82.12
2023-04-30T17:34:07.672Z,82.61
2023-04-30T17:36:37.607Z,83.18
2023-04-30T17:39:09.994Z,83.57
2023-04-30T17:41:39.848Z,83.82
2023-04-30T17:44:09.668Z,84.13
2023-04-30T17:46:39.830Z,84.58
2023-04-30T17:49:10.291Z,84.81
2023-04-30T17:51:43.226Z,85.18
2023-04-30T17:54:17.287Z,85.54
2023-04-30T17:56:47.130Z,85.85
2023-04-30T17:59:16.959Z,86.28
2023-04-30T18:01:46.900Z,86.70
2023-04-30T18:04:21.004Z,86.87
2023-04-30T18:06:51.687Z,87.09
2023-04-30T18:09:24.185Z,87.01
2023-04-30T18:11:54.154Z,87.27
2023-04-30T18:14:23.982Z,87.28
2023-04-30T18:16:56.186Z,87.67
2023-04-30T18:19:26.067Z,87.70
2023-04-30T18:21:57.005Z,87.76
2023-04-30T18:24:29.425Z,87.84
2023-04-30T18:27:00.120Z,87.94
2023-04-30T18:29:29.930Z,88.21
2023-04-30T18:31:59.840Z,88.49
2023-04-30T18:34:30.332Z,88.59
2023-04-30T18:37:01.494Z,88.96
2023-04-30T18:39:33.974Z,89.27
2023-04-30T18:42:10.003Z,89.60
2023-04-30T18:44:40.037Z,90.04
2023-04-30T18:47:13.691Z,90.42
2023-04-30T18:49:43.532Z,90.82
2023-04-30T18:52:17.917Z,91.05
2023-04-30T18:54:52.422Z,91.45
2023-04-30T18:57:31.336Z,91.69
2023-04-30T19:00:01.173Z,92.05
2023-04-30T19:02:32.254Z,92.46
2023-04-30T19:05:22.417Z,92.92
2023-04-30T19:07:52.266Z,93.28
2023-04-30T19:10:24.747Z,93.74
2023-04-30T19:12:56.324Z,94.14
2023-04-30T19:15:27.445Z,94.15
2023-04-30T19:17:58.817Z,94.53
2023-04-30T19:20:31.018Z,94.63
2023-04-30T19:23:06.219Z,94.73
2023-04-30T19:25:40.741Z,95.00
2023-04-30T19:28:11.591Z,95.16
2023-04-30T19:30:41.507Z,95.25
2023-04-30T19:33:13.276Z,95.39
2023-04-30T19:35:43.476Z,95.61
2023-04-30T19:38:13.351Z,95.86
2023-04-30T19:40:49.313Z,96.06
2023-04-30T19:43:19.368Z,96.40
2023-04-30T19:45:52.937Z,96.57
2023-04-30T19:48:24.783Z,96.79
2023-04-30T19:50:56.105Z,97.14
2023-04-30T19:53:32.807Z,97.24
2023-04-30T19:56:05.243Z,97.27
2023-04-30T19:58:35.116Z,97.17
2023-04-30T20:01:04.954Z,97.23
2023-04-30T20:03:35.980Z,97.38
2023-04-30T20:06:06.094Z,97.29
2023-04-30T20:08:35.967Z,97.26
2023-04-30T20:11:09.902Z,97.20
2023-04-30T20:13:39.693Z,97.19
2023-04-30T20:16:12.666Z,97.00
2023-04-30T20:18:42.816Z,96.88
2023-04-30T20:21:14.533Z,96.72
2023-04-30T20:23:44.370Z,96.73
2023-04-30T20:26:17.222Z,96.55
2023-04-30T20:28:47.005Z,96.54
2023-04-30T20:31:16.907Z,96.38
2023-04-30T20:33:46.984Z,96.17
2023-04-30T20:36:20.591Z,96.10
2023-04-30T20:38:55.904Z,95.98
2023-04-30T20:41:30.640Z,95.83
2023-04-30T20:44:00.857Z,95.65
2023-04-30T22:14:07.588Z,91.59
2023-04-30T22:16:41.854Z,91.58
2023-04-30T22:19:26.981Z,91.49
2023-04-30T22:24:53.740Z,91.40
2023-04-30T22:27:26.366Z,91.33
2023-04-30T22:30:06.382Z,91.31
2023-04-30T23:08:08.936Z,90.97
2023-04-30T23:10:38.839Z,90.96
2023-04-30T23:13:08.846Z,90.97
2023-04-30T23:15:38.676Z,90.92
2023-04-30T23:18:08.573Z,90.88
2023-04-30T23:20:38.777Z,90.89
2023-04-30T23:23:12.203Z,90.93
2023-04-30T23:25:42.164Z,91.02
2023-04-30T23:28:12.053Z,91.10
2023-04-30T23:30:41.952Z,91.14
2023-04-30T23:33:11.852Z,91.11
2023-04-30T23:35:46.034Z,91.28
2023-04-30T23:38:19.255Z,91.17
2023-04-30T23:40:49.098Z,91.27
2023-04-30T23:43:19.041Z,91.30
2023-04-30T23:45:48.926Z,91.19
2023-04-30T23:48:18.817Z,91.16
2023-04-30T23:50:48.634Z,91.44
2023-04-30T23:53:21.088Z,91.36
2023-04-30T23:55:53.194Z,91.40
2023-04-30T23:58:23.020Z,91.44
